<?xml version="1.0" encoding="UTF-8" standalone="no" ?>
<gpx xmlns="http://www.topografix.com/GPX/1/1" xmlns:xsi="http://www.w3.org/2001/XMLSchema-instance" xsi:schemaLocation="http://www.topografix.com/GPX/1/1 http://www.topografix.com/GPX/1/1/gpx.xsd" version="1.1" creator="VisuGPX - https://www.visugpx.com">
  <metadata>
    <name>St jean du bruel-Tour des baldies</name>
    <desc><![CDATA[Des bord de la Dourbie au causse Bégon par le tombeau du géant]]></desc>
  </metadata>
  <trk>
    <name><![CDATA[Causse-Bégon et le Tombeau du Géant]]></name>
    <extensions>
      <line xmlns="http://www.topografix.com/GPX/gpx_style/0/2">
        <color>0000FF</color>
        <opacity>1</opacity>
        <width>4</width>
      </line>
    </extensions>
    <trkseg>
      <trkpt lat="44.02342" lon="3.35965">
        <ele>518</ele>
        <time>2026-05-17T10:07:03.000Z</time>
      </trkpt>
      <trkpt lat="44.02366" lon="3.35969">
        <ele>519</ele>
        <time>2026-05-17T10:07:41.000Z</time>
      </trkpt>
      <trkpt lat="44.02435" lon="3.35978">
        <ele>519</ele>
        <time>2026-05-17T10:09:00.000Z</time>
      </trkpt>
      <trkpt lat="44.02434" lon="3.35959">
        <ele>519</ele>
        <time>2026-05-17T10:09:16.000Z</time>
      </trkpt>
      <trkpt lat="44.02433" lon="3.35934">
        <ele>518</ele>
        <time>2026-05-17T10:09:37.000Z</time>
      </trkpt>
      <trkpt lat="44.02433" lon="3.35897">
        <ele>518</ele>
        <time>2026-05-17T10:10:07.000Z</time>
      </trkpt>
      <trkpt lat="44.02434" lon="3.35855">
        <ele>516</ele>
        <time>2026-05-17T10:10:41.000Z</time>
      </trkpt>
      <trkpt lat="44.02438" lon="3.35833">
        <ele>516</ele>
        <time>2026-05-17T10:11:00.000Z</time>
      </trkpt>
      <trkpt lat="44.0245" lon="3.35813">
        <ele>516</ele>
        <time>2026-05-17T10:11:21.000Z</time>
      </trkpt>
      <trkpt lat="44.02468" lon="3.35792">
        <ele>514</ele>
        <time>2026-05-17T10:11:48.000Z</time>
      </trkpt>
      <trkpt lat="44.02491" lon="3.35745">
        <ele>514</ele>
        <time>2026-05-17T10:12:35.000Z</time>
      </trkpt>
      <trkpt lat="44.02474" lon="3.3573">
        <ele>504</ele>
        <time>2026-05-17T10:12:58.000Z</time>
      </trkpt>
      <trkpt lat="44.02493" lon="3.35742">
        <ele>514</ele>
        <time>2026-05-17T10:15:06.000Z</time>
      </trkpt>
      <trkpt lat="44.02508" lon="3.35726">
        <ele>513</ele>
        <time>2026-05-17T10:15:27.000Z</time>
      </trkpt>
      <trkpt lat="44.02522" lon="3.35706">
        <ele>515</ele>
        <time>2026-05-17T10:16:11.000Z</time>
      </trkpt>
      <trkpt lat="44.02548" lon="3.35688">
        <ele>516</ele>
        <time>2026-05-17T10:16:55.000Z</time>
      </trkpt>
      <trkpt lat="44.02581" lon="3.35677">
        <ele>512</ele>
        <time>2026-05-17T10:17:34.000Z</time>
      </trkpt>
      <trkpt lat="44.02601" lon="3.35671">
        <ele>514</ele>
        <time>2026-05-17T10:18:18.000Z</time>
      </trkpt>
      <trkpt lat="44.02595" lon="3.35637">
        <ele>515</ele>
        <time>2026-05-17T10:18:57.000Z</time>
      </trkpt>
      <trkpt lat="44.02587" lon="3.35615">
        <ele>515</ele>
        <time>2026-05-17T10:19:17.000Z</time>
      </trkpt>
      <trkpt lat="44.02578" lon="3.35595">
        <ele>515</ele>
        <time>2026-05-17T10:19:37.000Z</time>
      </trkpt>
      <trkpt lat="44.02569" lon="3.35567">
        <ele>514</ele>
        <time>2026-05-17T10:20:02.000Z</time>
      </trkpt>
      <trkpt lat="44.02567" lon="3.35549">
        <ele>513</ele>
        <time>2026-05-17T10:20:17.000Z</time>
      </trkpt>
      <trkpt lat="44.02572" lon="3.35505">
        <ele>512</ele>
        <time>2026-05-17T10:20:54.000Z</time>
      </trkpt>
      <trkpt lat="44.02576" lon="3.35467">
        <ele>512</ele>
        <time>2026-05-17T10:21:26.000Z</time>
      </trkpt>
      <trkpt lat="44.02584" lon="3.3543">
        <ele>512</ele>
        <time>2026-05-17T10:21:58.000Z</time>
      </trkpt>
      <trkpt lat="44.0259" lon="3.35384">
        <ele>512</ele>
        <time>2026-05-17T10:22:36.000Z</time>
      </trkpt>
      <trkpt lat="44.02601" lon="3.35321">
        <ele>512</ele>
        <time>2026-05-17T10:23:29.000Z</time>
      </trkpt>
      <trkpt lat="44.02616" lon="3.35263">
        <ele>512</ele>
        <time>2026-05-17T10:24:20.000Z</time>
      </trkpt>
      <trkpt lat="44.02638" lon="3.35185">
        <ele>517</ele>
        <time>2026-05-17T10:26:20.000Z</time>
      </trkpt>
      <trkpt lat="44.02648" lon="3.35185">
        <ele>516</ele>
        <time>2026-05-17T10:26:31.000Z</time>
      </trkpt>
      <trkpt lat="44.02655" lon="3.35181">
        <ele>516</ele>
        <time>2026-05-17T10:26:40.000Z</time>
      </trkpt>
      <trkpt lat="44.0267" lon="3.35171">
        <ele>517</ele>
        <time>2026-05-17T10:27:09.000Z</time>
      </trkpt>
      <trkpt lat="44.02677" lon="3.35164">
        <ele>517</ele>
        <time>2026-05-17T10:27:19.000Z</time>
      </trkpt>
      <trkpt lat="44.0268" lon="3.35155">
        <ele>518</ele>
        <time>2026-05-17T10:27:38.000Z</time>
      </trkpt>
      <trkpt lat="44.02684" lon="3.35137">
        <ele>520</ele>
        <time>2026-05-17T10:28:14.000Z</time>
      </trkpt>
      <trkpt lat="44.02689" lon="3.35126">
        <ele>520</ele>
        <time>2026-05-17T10:28:25.000Z</time>
      </trkpt>
      <trkpt lat="44.02717" lon="3.35117">
        <ele>522</ele>
        <time>2026-05-17T10:29:18.000Z</time>
      </trkpt>
      <trkpt lat="44.02738" lon="3.35111">
        <ele>524</ele>
        <time>2026-05-17T10:30:03.000Z</time>
      </trkpt>
      <trkpt lat="44.02749" lon="3.3512">
        <ele>523</ele>
        <time>2026-05-17T10:30:18.000Z</time>
      </trkpt>
      <trkpt lat="44.02768" lon="3.35121">
        <ele>523</ele>
        <time>2026-05-17T10:30:40.000Z</time>
      </trkpt>
      <trkpt lat="44.02812" lon="3.35117">
        <ele>523</ele>
        <time>2026-05-17T10:31:30.000Z</time>
      </trkpt>
      <trkpt lat="44.02825" lon="3.35113">
        <ele>523</ele>
        <time>2026-05-17T10:31:45.000Z</time>
      </trkpt>
      <trkpt lat="44.02848" lon="3.35097">
        <ele>525</ele>
        <time>2026-05-17T10:32:35.000Z</time>
      </trkpt>
      <trkpt lat="44.02877" lon="3.35089">
        <ele>528</ele>
        <time>2026-05-17T10:33:40.000Z</time>
      </trkpt>
      <trkpt lat="44.02901" lon="3.3508">
        <ele>527</ele>
        <time>2026-05-17T10:34:08.000Z</time>
      </trkpt>
      <trkpt lat="44.02905" lon="3.35069">
        <ele>529</ele>
        <time>2026-05-17T10:34:39.000Z</time>
      </trkpt>
      <trkpt lat="44.02904" lon="3.35054">
        <ele>531</ele>
        <time>2026-05-17T10:35:12.000Z</time>
      </trkpt>
      <trkpt lat="44.02909" lon="3.35045">
        <ele>532</ele>
        <time>2026-05-17T10:35:32.000Z</time>
      </trkpt>
      <trkpt lat="44.02923" lon="3.35038">
        <ele>537</ele>
        <time>2026-05-17T10:36:40.000Z</time>
      </trkpt>
      <trkpt lat="44.02946" lon="3.35036">
        <ele>537</ele>
        <time>2026-05-17T10:37:06.000Z</time>
      </trkpt>
      <trkpt lat="44.02961" lon="3.35037">
        <ele>539</ele>
        <time>2026-05-17T10:37:44.000Z</time>
      </trkpt>
      <trkpt lat="44.02988" lon="3.35048">
        <ele>536</ele>
        <time>2026-05-17T10:38:16.000Z</time>
      </trkpt>
      <trkpt lat="44.03" lon="3.35049">
        <ele>535</ele>
        <time>2026-05-17T10:38:30.000Z</time>
      </trkpt>
      <trkpt lat="44.03022" lon="3.35061">
        <ele>535</ele>
        <time>2026-05-17T10:38:57.000Z</time>
      </trkpt>
      <trkpt lat="44.03034" lon="3.35064">
        <ele>535</ele>
        <time>2026-05-17T10:39:11.000Z</time>
      </trkpt>
      <trkpt lat="44.03052" lon="3.35062">
        <ele>536</ele>
        <time>2026-05-17T10:39:42.000Z</time>
      </trkpt>
      <trkpt lat="44.03073" lon="3.35054">
        <ele>539</ele>
        <time>2026-05-17T10:40:38.000Z</time>
      </trkpt>
      <trkpt lat="44.03094" lon="3.35052">
        <ele>542</ele>
        <time>2026-05-17T10:41:33.000Z</time>
      </trkpt>
      <trkpt lat="44.03112" lon="3.35036">
        <ele>547</ele>
        <time>2026-05-17T10:42:49.000Z</time>
      </trkpt>
      <trkpt lat="44.03137" lon="3.35023">
        <ele>549</ele>
        <time>2026-05-17T10:43:40.000Z</time>
      </trkpt>
      <trkpt lat="44.03165" lon="3.35015">
        <ele>551</ele>
        <time>2026-05-17T10:44:33.000Z</time>
      </trkpt>
      <trkpt lat="44.03199" lon="3.35008">
        <ele>550</ele>
        <time>2026-05-17T10:45:12.000Z</time>
      </trkpt>
      <trkpt lat="44.03237" lon="3.34991">
        <ele>552</ele>
        <time>2026-05-17T10:46:18.000Z</time>
      </trkpt>
      <trkpt lat="44.03282" lon="3.34962">
        <ele>550</ele>
        <time>2026-05-17T10:47:15.000Z</time>
      </trkpt>
      <trkpt lat="44.03328" lon="3.34936">
        <ele>552</ele>
        <time>2026-05-17T10:48:32.000Z</time>
      </trkpt>
      <trkpt lat="44.0336" lon="3.34921">
        <ele>552</ele>
        <time>2026-05-17T10:49:11.000Z</time>
      </trkpt>
      <trkpt lat="44.03371" lon="3.34919">
        <ele>551</ele>
        <time>2026-05-17T10:49:24.000Z</time>
      </trkpt>
      <trkpt lat="44.03393" lon="3.34922">
        <ele>553</ele>
        <time>2026-05-17T10:50:10.000Z</time>
      </trkpt>
      <trkpt lat="44.03408" lon="3.34931">
        <ele>551</ele>
        <time>2026-05-17T10:50:29.000Z</time>
      </trkpt>
      <trkpt lat="44.03429" lon="3.34934">
        <ele>552</ele>
        <time>2026-05-17T10:51:03.000Z</time>
      </trkpt>
      <trkpt lat="44.03445" lon="3.34937">
        <ele>552</ele>
        <time>2026-05-17T10:51:21.000Z</time>
      </trkpt>
      <trkpt lat="44.03471" lon="3.34941">
        <ele>552</ele>
        <time>2026-05-17T10:51:51.000Z</time>
      </trkpt>
      <trkpt lat="44.03517" lon="3.34941">
        <ele>553</ele>
        <time>2026-05-17T10:52:54.000Z</time>
      </trkpt>
      <trkpt lat="44.03532" lon="3.34938">
        <ele>555</ele>
        <time>2026-05-17T10:53:32.000Z</time>
      </trkpt>
      <trkpt lat="44.03548" lon="3.34933">
        <ele>558</ele>
        <time>2026-05-17T10:54:22.000Z</time>
      </trkpt>
      <trkpt lat="44.03561" lon="3.34941">
        <ele>558</ele>
        <time>2026-05-17T10:54:38.000Z</time>
      </trkpt>
      <trkpt lat="44.03599" lon="3.34962">
        <ele>561</ele>
        <time>2026-05-17T10:55:56.000Z</time>
      </trkpt>
      <trkpt lat="44.03628" lon="3.34972">
        <ele>560</ele>
        <time>2026-05-17T10:56:30.000Z</time>
      </trkpt>
      <trkpt lat="44.03646" lon="3.34973">
        <ele>561</ele>
        <time>2026-05-17T10:57:01.000Z</time>
      </trkpt>
      <trkpt lat="44.0367" lon="3.3497">
        <ele>560</ele>
        <time>2026-05-17T10:57:29.000Z</time>
      </trkpt>
      <trkpt lat="44.03685" lon="3.34982">
        <ele>560</ele>
        <time>2026-05-17T10:57:49.000Z</time>
      </trkpt>
      <trkpt lat="44.03703" lon="3.34992">
        <ele>560</ele>
        <time>2026-05-17T10:58:11.000Z</time>
      </trkpt>
      <trkpt lat="44.03711" lon="3.34992">
        <ele>560</ele>
        <time>2026-05-17T10:58:20.000Z</time>
      </trkpt>
      <trkpt lat="44.03717" lon="3.34987">
        <ele>562</ele>
        <time>2026-05-17T10:58:48.000Z</time>
      </trkpt>
      <trkpt lat="44.03726" lon="3.34974">
        <ele>565</ele>
        <time>2026-05-17T10:59:34.000Z</time>
      </trkpt>
      <trkpt lat="44.03737" lon="3.34957">
        <ele>567</ele>
        <time>2026-05-17T11:00:13.000Z</time>
      </trkpt>
      <trkpt lat="44.03749" lon="3.34934">
        <ele>570</ele>
        <time>2026-05-17T11:01:07.000Z</time>
      </trkpt>
      <trkpt lat="44.03784" lon="3.34891">
        <ele>574</ele>
        <time>2026-05-17T11:02:42.000Z</time>
      </trkpt>
      <trkpt lat="44.03815" lon="3.34854">
        <ele>574</ele>
        <time>2026-05-17T11:03:29.000Z</time>
      </trkpt>
      <trkpt lat="44.03837" lon="3.34837">
        <ele>577</ele>
        <time>2026-05-17T11:04:29.000Z</time>
      </trkpt>
      <trkpt lat="44.03897" lon="3.34812">
        <ele>584</ele>
        <time>2026-05-17T11:06:53.000Z</time>
      </trkpt>
      <trkpt lat="44.03943" lon="3.3478">
        <ele>591</ele>
        <time>2026-05-17T11:09:04.000Z</time>
      </trkpt>
      <trkpt lat="44.03988" lon="3.34736">
        <ele>593</ele>
        <time>2026-05-17T11:10:28.000Z</time>
      </trkpt>
      <trkpt lat="44.04005" lon="3.34732">
        <ele>594</ele>
        <time>2026-05-17T11:10:58.000Z</time>
      </trkpt>
      <trkpt lat="44.04021" lon="3.34722">
        <ele>596</ele>
        <time>2026-05-17T11:11:39.000Z</time>
      </trkpt>
      <trkpt lat="44.04039" lon="3.34714">
        <ele>598</ele>
        <time>2026-05-17T11:12:21.000Z</time>
      </trkpt>
      <trkpt lat="44.04059" lon="3.34715">
        <ele>600</ele>
        <time>2026-05-17T11:13:04.000Z</time>
      </trkpt>
      <trkpt lat="44.04075" lon="3.34713">
        <ele>601</ele>
        <time>2026-05-17T11:13:33.000Z</time>
      </trkpt>
      <trkpt lat="44.04092" lon="3.34699">
        <ele>604</ele>
        <time>2026-05-17T11:14:26.000Z</time>
      </trkpt>
      <trkpt lat="44.04096" lon="3.34687">
        <ele>604</ele>
        <time>2026-05-17T11:14:37.000Z</time>
      </trkpt>
      <trkpt lat="44.04091" lon="3.34666">
        <ele>606</ele>
        <time>2026-05-17T11:15:16.000Z</time>
      </trkpt>
      <trkpt lat="44.04092" lon="3.34645">
        <ele>607</ele>
        <time>2026-05-17T11:15:44.000Z</time>
      </trkpt>
      <trkpt lat="44.04098" lon="3.34619">
        <ele>609</ele>
        <time>2026-05-17T11:16:27.000Z</time>
      </trkpt>
      <trkpt lat="44.04111" lon="3.34607">
        <ele>610</ele>
        <time>2026-05-17T11:16:55.000Z</time>
      </trkpt>
      <trkpt lat="44.0413" lon="3.34601">
        <ele>615</ele>
        <time>2026-05-17T11:18:09.000Z</time>
      </trkpt>
      <trkpt lat="44.04147" lon="3.34588">
        <ele>619</ele>
        <time>2026-05-17T11:19:12.000Z</time>
      </trkpt>
      <trkpt lat="44.04165" lon="3.34568">
        <ele>621</ele>
        <time>2026-05-17T11:19:59.000Z</time>
      </trkpt>
      <trkpt lat="44.04182" lon="3.3454">
        <ele>628</ele>
        <time>2026-05-17T11:21:41.000Z</time>
      </trkpt>
      <trkpt lat="44.04187" lon="3.34513">
        <ele>629</ele>
        <time>2026-05-17T11:22:14.000Z</time>
      </trkpt>
      <trkpt lat="44.04206" lon="3.34452">
        <ele>634</ele>
        <time>2026-05-17T11:24:00.000Z</time>
      </trkpt>
      <trkpt lat="44.04211" lon="3.34424">
        <ele>637</ele>
        <time>2026-05-17T11:24:55.000Z</time>
      </trkpt>
      <trkpt lat="44.04217" lon="3.34397">
        <ele>638</ele>
        <time>2026-05-17T11:25:29.000Z</time>
      </trkpt>
      <trkpt lat="44.04232" lon="3.3436">
        <ele>638</ele>
        <time>2026-05-17T11:26:04.000Z</time>
      </trkpt>
      <trkpt lat="44.0426" lon="3.34311">
        <ele>647</ele>
        <time>2026-05-17T11:28:28.000Z</time>
      </trkpt>
      <trkpt lat="44.04282" lon="3.34281">
        <ele>652</ele>
        <time>2026-05-17T11:29:55.000Z</time>
      </trkpt>
      <trkpt lat="44.04299" lon="3.34266">
        <ele>656</ele>
        <time>2026-05-17T11:30:59.000Z</time>
      </trkpt>
      <trkpt lat="44.04328" lon="3.34256">
        <ele>663</ele>
        <time>2026-05-17T11:32:45.000Z</time>
      </trkpt>
      <trkpt lat="44.04352" lon="3.34251">
        <ele>668</ele>
        <time>2026-05-17T11:34:04.000Z</time>
      </trkpt>
      <trkpt lat="44.04371" lon="3.3425">
        <ele>674</ele>
        <time>2026-05-17T11:35:27.000Z</time>
      </trkpt>
      <trkpt lat="44.04397" lon="3.3424">
        <ele>674</ele>
        <time>2026-05-17T11:35:58.000Z</time>
      </trkpt>
      <trkpt lat="44.04418" lon="3.34238">
        <ele>674</ele>
        <time>2026-05-17T11:36:22.000Z</time>
      </trkpt>
      <trkpt lat="44.04444" lon="3.34243">
        <ele>677</ele>
        <time>2026-05-17T11:37:23.000Z</time>
      </trkpt>
      <trkpt lat="44.04469" lon="3.34246">
        <ele>677</ele>
        <time>2026-05-17T11:37:52.000Z</time>
      </trkpt>
      <trkpt lat="44.04477" lon="3.34244">
        <ele>674</ele>
        <time>2026-05-17T11:38:01.000Z</time>
      </trkpt>
      <trkpt lat="44.04478" lon="3.34235">
        <ele>670</ele>
        <time>2026-05-17T11:38:08.000Z</time>
      </trkpt>
      <trkpt lat="44.04474" lon="3.34222">
        <ele>672</ele>
        <time>2026-05-17T11:38:40.000Z</time>
      </trkpt>
      <trkpt lat="44.04459" lon="3.3419">
        <ele>675</ele>
        <time>2026-05-17T11:39:42.000Z</time>
      </trkpt>
      <trkpt lat="44.04447" lon="3.34173">
        <ele>677</ele>
        <time>2026-05-17T11:40:22.000Z</time>
      </trkpt>
      <trkpt lat="44.04439" lon="3.34157">
        <ele>677</ele>
        <time>2026-05-17T11:40:38.000Z</time>
      </trkpt>
      <trkpt lat="44.04433" lon="3.34148">
        <ele>676</ele>
        <time>2026-05-17T11:40:48.000Z</time>
      </trkpt>
      <trkpt lat="44.04427" lon="3.34127">
        <ele>682</ele>
        <time>2026-05-17T11:42:08.000Z</time>
      </trkpt>
      <trkpt lat="44.04422" lon="3.34111">
        <ele>685</ele>
        <time>2026-05-17T11:42:53.000Z</time>
      </trkpt>
      <trkpt lat="44.04413" lon="3.34098">
        <ele>685</ele>
        <time>2026-05-17T11:43:08.000Z</time>
      </trkpt>
      <trkpt lat="44.04406" lon="3.34086">
        <ele>688</ele>
        <time>2026-05-17T11:43:52.000Z</time>
      </trkpt>
      <trkpt lat="44.04403" lon="3.34071">
        <ele>693</ele>
        <time>2026-05-17T11:44:56.000Z</time>
      </trkpt>
      <trkpt lat="44.0441" lon="3.34058">
        <ele>698</ele>
        <time>2026-05-17T11:46:01.000Z</time>
      </trkpt>
      <trkpt lat="44.04422" lon="3.3405">
        <ele>708</ele>
        <time>2026-05-17T11:47:59.000Z</time>
      </trkpt>
      <trkpt lat="44.04438" lon="3.34046">
        <ele>717</ele>
        <time>2026-05-17T11:49:50.000Z</time>
      </trkpt>
      <trkpt lat="44.04462" lon="3.34051">
        <ele>727</ele>
        <time>2026-05-17T11:52:01.000Z</time>
      </trkpt>
      <trkpt lat="44.04483" lon="3.34058">
        <ele>732</ele>
        <time>2026-05-17T11:53:17.000Z</time>
      </trkpt>
      <trkpt lat="44.04509" lon="3.34075">
        <ele>735</ele>
        <time>2026-05-17T11:54:21.000Z</time>
      </trkpt>
      <trkpt lat="44.04538" lon="3.34099">
        <ele>745</ele>
        <time>2026-05-17T11:56:42.000Z</time>
      </trkpt>
      <trkpt lat="44.04547" lon="3.34105">
        <ele>748</ele>
        <time>2026-05-17T11:57:24.000Z</time>
      </trkpt>
      <trkpt lat="44.04562" lon="3.3411">
        <ele>750</ele>
        <time>2026-05-17T11:58:02.000Z</time>
      </trkpt>
      <trkpt lat="44.04581" lon="3.34109">
        <ele>755</ele>
        <time>2026-05-17T11:59:15.000Z</time>
      </trkpt>
      <trkpt lat="44.046" lon="3.34104">
        <ele>760</ele>
        <time>2026-05-17T12:00:29.000Z</time>
      </trkpt>
      <trkpt lat="44.04631" lon="3.34093">
        <ele>767</ele>
        <time>2026-05-17T12:02:17.000Z</time>
      </trkpt>
      <trkpt lat="44.04687" lon="3.34064">
        <ele>778</ele>
        <time>2026-05-17T12:05:18.000Z</time>
      </trkpt>
      <trkpt lat="44.04745" lon="3.34021">
        <ele>790</ele>
        <time>2026-05-17T12:08:37.000Z</time>
      </trkpt>
      <trkpt lat="44.0476" lon="3.3402">
        <ele>794</ele>
        <time>2026-05-17T12:09:36.000Z</time>
      </trkpt>
      <trkpt lat="44.04769" lon="3.3402">
        <ele>796</ele>
        <time>2026-05-17T12:10:06.000Z</time>
      </trkpt>
      <trkpt lat="44.0477" lon="3.33998">
        <ele>798</ele>
        <time>2026-05-17T12:10:45.000Z</time>
      </trkpt>
      <trkpt lat="44.04766" lon="3.33971">
        <ele>800</ele>
        <time>2026-05-17T12:11:28.000Z</time>
      </trkpt>
      <trkpt lat="44.04767" lon="3.33949">
        <ele>804</ele>
        <time>2026-05-17T12:12:27.000Z</time>
      </trkpt>
      <trkpt lat="44.04765" lon="3.33933">
        <ele>805</ele>
        <time>2026-05-17T12:12:51.000Z</time>
      </trkpt>
      <trkpt lat="44.0476" lon="3.33924">
        <ele>806</ele>
        <time>2026-05-17T12:13:11.000Z</time>
      </trkpt>
      <trkpt lat="44.04749" lon="3.33925">
        <ele>807</ele>
        <time>2026-05-17T12:13:34.000Z</time>
      </trkpt>
      <trkpt lat="44.04754" lon="3.3391">
        <ele>811</ele>
        <time>2026-05-17T12:14:29.000Z</time>
      </trkpt>
      <trkpt lat="44.04764" lon="3.33892">
        <ele>815</ele>
        <time>2026-05-17T12:15:29.000Z</time>
      </trkpt>
      <trkpt lat="44.04784" lon="3.33881">
        <ele>821</ele>
        <time>2026-05-17T12:16:55.000Z</time>
      </trkpt>
      <trkpt lat="44.04809" lon="3.33861">
        <ele>827</ele>
        <time>2026-05-17T12:18:30.000Z</time>
      </trkpt>
      <trkpt lat="44.04818" lon="3.33881">
        <ele>827</ele>
        <time>2026-05-17T12:18:49.000Z</time>
      </trkpt>
      <trkpt lat="44.04814" lon="3.33905">
        <ele>826</ele>
        <time>2026-05-17T12:19:09.000Z</time>
      </trkpt>
      <trkpt lat="44.04818" lon="3.3392">
        <ele>826</ele>
        <time>2026-05-17T12:19:22.000Z</time>
      </trkpt>
      <trkpt lat="44.04834" lon="3.33955">
        <ele>827</ele>
        <time>2026-05-17T12:20:06.000Z</time>
      </trkpt>
      <trkpt lat="44.04843" lon="3.33981">
        <ele>828</ele>
        <time>2026-05-17T12:20:40.000Z</time>
      </trkpt>
      <trkpt lat="44.04845" lon="3.34001">
        <ele>828</ele>
        <time>2026-05-17T12:20:57.000Z</time>
      </trkpt>
      <trkpt lat="44.04845" lon="3.34021">
        <ele>829</ele>
        <time>2026-05-17T12:21:24.000Z</time>
      </trkpt>
      <trkpt lat="44.04843" lon="3.34038">
        <ele>830</ele>
        <time>2026-05-17T12:21:48.000Z</time>
      </trkpt>
      <trkpt lat="44.04836" lon="3.34063">
        <ele>829</ele>
        <time>2026-05-17T12:22:10.000Z</time>
      </trkpt>
      <trkpt lat="44.04836" lon="3.34114">
        <ele>831</ele>
        <time>2026-05-17T12:23:13.000Z</time>
      </trkpt>
      <trkpt lat="44.04843" lon="3.34157">
        <ele>832</ele>
        <time>2026-05-17T12:24:00.000Z</time>
      </trkpt>
      <trkpt lat="44.04843" lon="3.3418">
        <ele>831</ele>
        <time>2026-05-17T12:24:19.000Z</time>
      </trkpt>
      <trkpt lat="44.04846" lon="3.342">
        <ele>832</ele>
        <time>2026-05-17T12:24:46.000Z</time>
      </trkpt>
      <trkpt lat="44.04847" lon="3.34239">
        <ele>833</ele>
        <time>2026-05-17T12:25:28.000Z</time>
      </trkpt>
      <trkpt lat="44.04848" lon="3.34265">
        <ele>834</ele>
        <time>2026-05-17T12:26:00.000Z</time>
      </trkpt>
      <trkpt lat="44.04851" lon="3.34293">
        <ele>835</ele>
        <time>2026-05-17T12:26:34.000Z</time>
      </trkpt>
      <trkpt lat="44.04849" lon="3.34313">
        <ele>835</ele>
        <time>2026-05-17T12:26:51.000Z</time>
      </trkpt>
      <trkpt lat="44.04848" lon="3.34339">
        <ele>835</ele>
        <time>2026-05-17T12:27:12.000Z</time>
      </trkpt>
      <trkpt lat="44.04846" lon="3.34362">
        <ele>836</ele>
        <time>2026-05-17T12:27:41.000Z</time>
      </trkpt>
      <trkpt lat="44.04844" lon="3.3438">
        <ele>836</ele>
        <time>2026-05-17T12:27:56.000Z</time>
      </trkpt>
      <trkpt lat="44.04839" lon="3.34399">
        <ele>837</ele>
        <time>2026-05-17T12:28:23.000Z</time>
      </trkpt>
      <trkpt lat="44.04839" lon="3.34423">
        <ele>839</ele>
        <time>2026-05-17T12:29:03.000Z</time>
      </trkpt>
      <trkpt lat="44.0484" lon="3.34459">
        <ele>837</ele>
        <time>2026-05-17T12:29:33.000Z</time>
      </trkpt>
      <trkpt lat="44.04834" lon="3.34503">
        <ele>839</ele>
        <time>2026-05-17T12:30:30.000Z</time>
      </trkpt>
      <trkpt lat="44.04836" lon="3.34513">
        <ele>838</ele>
        <time>2026-05-17T12:30:39.000Z</time>
      </trkpt>
      <trkpt lat="44.04842" lon="3.34531">
        <ele>838</ele>
        <time>2026-05-17T12:30:55.000Z</time>
      </trkpt>
      <trkpt lat="44.04848" lon="3.3456">
        <ele>839</ele>
        <time>2026-05-17T12:31:30.000Z</time>
      </trkpt>
      <trkpt lat="44.04857" lon="3.34595">
        <ele>839</ele>
        <time>2026-05-17T12:32:01.000Z</time>
      </trkpt>
      <trkpt lat="44.04856" lon="3.34635">
        <ele>839</ele>
        <time>2026-05-17T12:32:34.000Z</time>
      </trkpt>
      <trkpt lat="44.04863" lon="3.34671">
        <ele>838</ele>
        <time>2026-05-17T12:33:05.000Z</time>
      </trkpt>
      <trkpt lat="44.04865" lon="3.34686">
        <ele>839</ele>
        <time>2026-05-17T12:33:28.000Z</time>
      </trkpt>
      <trkpt lat="44.04864" lon="3.34704">
        <ele>837</ele>
        <time>2026-05-17T12:33:43.000Z</time>
      </trkpt>
      <trkpt lat="44.04866" lon="3.34729">
        <ele>839</ele>
        <time>2026-05-17T12:34:24.000Z</time>
      </trkpt>
      <trkpt lat="44.04874" lon="3.34758">
        <ele>840</ele>
        <time>2026-05-17T12:35:00.000Z</time>
      </trkpt>
      <trkpt lat="44.04876" lon="3.3478">
        <ele>840</ele>
        <time>2026-05-17T12:35:18.000Z</time>
      </trkpt>
      <trkpt lat="44.04877" lon="3.34802">
        <ele>841</ele>
        <time>2026-05-17T12:35:46.000Z</time>
      </trkpt>
      <trkpt lat="44.04874" lon="3.34827">
        <ele>843</ele>
        <time>2026-05-17T12:36:27.000Z</time>
      </trkpt>
      <trkpt lat="44.0487" lon="3.3486">
        <ele>845</ele>
        <time>2026-05-17T12:37:15.000Z</time>
      </trkpt>
      <trkpt lat="44.04868" lon="3.34878">
        <ele>846</ele>
        <time>2026-05-17T12:37:40.000Z</time>
      </trkpt>
      <trkpt lat="44.0487" lon="3.349">
        <ele>846</ele>
        <time>2026-05-17T12:37:58.000Z</time>
      </trkpt>
      <trkpt lat="44.04875" lon="3.34929">
        <ele>846</ele>
        <time>2026-05-17T12:38:23.000Z</time>
      </trkpt>
      <trkpt lat="44.04909" lon="3.34927">
        <ele>862</ele>
        <time>2026-05-17T12:41:47.000Z</time>
      </trkpt>
      <trkpt lat="44.04947" lon="3.34908">
        <ele>875</ele>
        <time>2026-05-17T12:44:47.000Z</time>
      </trkpt>
      <trkpt lat="44.04958" lon="3.34897">
        <ele>877</ele>
        <time>2026-05-17T12:45:23.000Z</time>
      </trkpt>
      <trkpt lat="44.04972" lon="3.34887">
        <ele>880</ele>
        <time>2026-05-17T12:46:12.000Z</time>
      </trkpt>
      <trkpt lat="44.04968" lon="3.34898">
        <ele>880</ele>
        <time>2026-05-17T12:46:22.000Z</time>
      </trkpt>
      <trkpt lat="44.04943" lon="3.34918">
        <ele>873</ele>
        <time>2026-05-17T12:46:55.000Z</time>
      </trkpt>
      <trkpt lat="44.04918" lon="3.34934">
        <ele>867</ele>
        <time>2026-05-17T12:47:27.000Z</time>
      </trkpt>
      <trkpt lat="44.04901" lon="3.3494">
        <ele>860</ele>
        <time>2026-05-17T12:47:47.000Z</time>
      </trkpt>
      <trkpt lat="44.04879" lon="3.34945">
        <ele>847</ele>
        <time>2026-05-17T12:48:13.000Z</time>
      </trkpt>
      <trkpt lat="44.04882" lon="3.34958">
        <ele>846</ele>
        <time>2026-05-17T12:48:24.000Z</time>
      </trkpt>
      <trkpt lat="44.04887" lon="3.34976">
        <ele>848</ele>
        <time>2026-05-17T12:49:00.000Z</time>
      </trkpt>
      <trkpt lat="44.04887" lon="3.34992">
        <ele>848</ele>
        <time>2026-05-17T12:49:13.000Z</time>
      </trkpt>
      <trkpt lat="44.04883" lon="3.35009">
        <ele>849</ele>
        <time>2026-05-17T12:49:38.000Z</time>
      </trkpt>
      <trkpt lat="44.04868" lon="3.35033">
        <ele>851</ele>
        <time>2026-05-17T12:50:25.000Z</time>
      </trkpt>
      <trkpt lat="44.04856" lon="3.35062">
        <ele>853</ele>
        <time>2026-05-17T12:51:13.000Z</time>
      </trkpt>
      <trkpt lat="44.04849" lon="3.35104">
        <ele>856</ele>
        <time>2026-05-17T12:52:19.000Z</time>
      </trkpt>
      <trkpt lat="44.04844" lon="3.35142">
        <ele>858</ele>
        <time>2026-05-17T12:53:11.000Z</time>
      </trkpt>
      <trkpt lat="44.04843" lon="3.35179">
        <ele>861</ele>
        <time>2026-05-17T12:54:12.000Z</time>
      </trkpt>
      <trkpt lat="44.04843" lon="3.35201">
        <ele>863</ele>
        <time>2026-05-17T12:54:51.000Z</time>
      </trkpt>
      <trkpt lat="44.04849" lon="3.35226">
        <ele>865</ele>
        <time>2026-05-17T12:55:33.000Z</time>
      </trkpt>
      <trkpt lat="44.04851" lon="3.35252">
        <ele>868</ele>
        <time>2026-05-17T12:56:25.000Z</time>
      </trkpt>
      <trkpt lat="44.04853" lon="3.35278">
        <ele>870</ele>
        <time>2026-05-17T12:57:07.000Z</time>
      </trkpt>
      <trkpt lat="44.04862" lon="3.35296">
        <ele>872</ele>
        <time>2026-05-17T12:57:46.000Z</time>
      </trkpt>
      <trkpt lat="44.04872" lon="3.35317">
        <ele>873</ele>
        <time>2026-05-17T12:58:17.000Z</time>
      </trkpt>
      <trkpt lat="44.04877" lon="3.35331">
        <ele>873</ele>
        <time>2026-05-17T12:58:30.000Z</time>
      </trkpt>
      <trkpt lat="44.04889" lon="3.35339">
        <ele>874</ele>
        <time>2026-05-17T12:58:56.000Z</time>
      </trkpt>
      <trkpt lat="44.04905" lon="3.35353">
        <ele>875</ele>
        <time>2026-05-17T12:59:28.000Z</time>
      </trkpt>
      <trkpt lat="44.04929" lon="3.35384">
        <ele>873</ele>
        <time>2026-05-17T13:00:05.000Z</time>
      </trkpt>
      <trkpt lat="44.04961" lon="3.35424">
        <ele>871</ele>
        <time>2026-05-17T13:00:54.000Z</time>
      </trkpt>
      <trkpt lat="44.04967" lon="3.35434">
        <ele>870</ele>
        <time>2026-05-17T13:01:05.000Z</time>
      </trkpt>
      <trkpt lat="44.0497" lon="3.35445">
        <ele>870</ele>
        <time>2026-05-17T13:01:14.000Z</time>
      </trkpt>
      <trkpt lat="44.04974" lon="3.35453">
        <ele>870</ele>
        <time>2026-05-17T13:01:22.000Z</time>
      </trkpt>
      <trkpt lat="44.04982" lon="3.35459">
        <ele>869</ele>
        <time>2026-05-17T13:01:32.000Z</time>
      </trkpt>
      <trkpt lat="44.05001" lon="3.35461">
        <ele>870</ele>
        <time>2026-05-17T13:02:04.000Z</time>
      </trkpt>
      <trkpt lat="44.05023" lon="3.35466">
        <ele>869</ele>
        <time>2026-05-17T13:02:30.000Z</time>
      </trkpt>
      <trkpt lat="44.05048" lon="3.35467">
        <ele>870</ele>
        <time>2026-05-17T13:03:09.000Z</time>
      </trkpt>
      <trkpt lat="44.05067" lon="3.35479">
        <ele>870</ele>
        <time>2026-05-17T13:03:33.000Z</time>
      </trkpt>
      <trkpt lat="44.05082" lon="3.35482">
        <ele>869</ele>
        <time>2026-05-17T13:03:50.000Z</time>
      </trkpt>
      <trkpt lat="44.05093" lon="3.35481">
        <ele>869</ele>
        <time>2026-05-17T13:04:02.000Z</time>
      </trkpt>
      <trkpt lat="44.05103" lon="3.35487">
        <ele>868</ele>
        <time>2026-05-17T13:04:15.000Z</time>
      </trkpt>
      <trkpt lat="44.0512" lon="3.35496">
        <ele>868</ele>
        <time>2026-05-17T13:04:36.000Z</time>
      </trkpt>
      <trkpt lat="44.05131" lon="3.35517">
        <ele>867</ele>
        <time>2026-05-17T13:04:57.000Z</time>
      </trkpt>
      <trkpt lat="44.05143" lon="3.35543">
        <ele>867</ele>
        <time>2026-05-17T13:05:22.000Z</time>
      </trkpt>
      <trkpt lat="44.05156" lon="3.35561">
        <ele>867</ele>
        <time>2026-05-17T13:05:43.000Z</time>
      </trkpt>
      <trkpt lat="44.05163" lon="3.35578">
        <ele>867</ele>
        <time>2026-05-17T13:05:59.000Z</time>
      </trkpt>
      <trkpt lat="44.0517" lon="3.35606">
        <ele>868</ele>
        <time>2026-05-17T13:06:34.000Z</time>
      </trkpt>
      <trkpt lat="44.05176" lon="3.35623">
        <ele>869</ele>
        <time>2026-05-17T13:07:00.000Z</time>
      </trkpt>
      <trkpt lat="44.05192" lon="3.35657">
        <ele>871</ele>
        <time>2026-05-17T13:07:54.000Z</time>
      </trkpt>
      <trkpt lat="44.05226" lon="3.35733">
        <ele>873</ele>
        <time>2026-05-17T13:09:28.000Z</time>
      </trkpt>
      <trkpt lat="44.0523" lon="3.35753">
        <ele>873</ele>
        <time>2026-05-17T13:09:45.000Z</time>
      </trkpt>
      <trkpt lat="44.05232" lon="3.35769">
        <ele>874</ele>
        <time>2026-05-17T13:10:09.000Z</time>
      </trkpt>
      <trkpt lat="44.0524" lon="3.35792">
        <ele>873</ele>
        <time>2026-05-17T13:10:30.000Z</time>
      </trkpt>
      <trkpt lat="44.05263" lon="3.35847">
        <ele>871</ele>
        <time>2026-05-17T13:11:22.000Z</time>
      </trkpt>
      <trkpt lat="44.05291" lon="3.35913">
        <ele>872</ele>
        <time>2026-05-17T13:12:35.000Z</time>
      </trkpt>
      <trkpt lat="44.05307" lon="3.35961">
        <ele>872</ele>
        <time>2026-05-17T13:13:19.000Z</time>
      </trkpt>
      <trkpt lat="44.05323" lon="3.36004">
        <ele>873</ele>
        <time>2026-05-17T13:14:09.000Z</time>
      </trkpt>
      <trkpt lat="44.05339" lon="3.36026">
        <ele>874</ele>
        <time>2026-05-17T13:14:45.000Z</time>
      </trkpt>
      <trkpt lat="44.05364" lon="3.36074">
        <ele>876</ele>
        <time>2026-05-17T13:15:54.000Z</time>
      </trkpt>
      <trkpt lat="44.05395" lon="3.36136">
        <ele>877</ele>
        <time>2026-05-17T13:17:06.000Z</time>
      </trkpt>
      <trkpt lat="44.05436" lon="3.36203">
        <ele>878</ele>
        <time>2026-05-17T13:18:29.000Z</time>
      </trkpt>
      <trkpt lat="44.05472" lon="3.3625">
        <ele>878</ele>
        <time>2026-05-17T13:19:26.000Z</time>
      </trkpt>
      <trkpt lat="44.05511" lon="3.36316">
        <ele>880</ele>
        <time>2026-05-17T13:20:57.000Z</time>
      </trkpt>
      <trkpt lat="44.05555" lon="3.36386">
        <ele>886</ele>
        <time>2026-05-17T13:23:15.000Z</time>
      </trkpt>
      <trkpt lat="44.05584" lon="3.36432">
        <ele>888</ele>
        <time>2026-05-17T13:24:26.000Z</time>
      </trkpt>
      <trkpt lat="44.05597" lon="3.36468">
        <ele>889</ele>
        <time>2026-05-17T13:25:09.000Z</time>
      </trkpt>
      <trkpt lat="44.05613" lon="3.36506">
        <ele>889</ele>
        <time>2026-05-17T13:25:45.000Z</time>
      </trkpt>
      <trkpt lat="44.05628" lon="3.36535">
        <ele>888</ele>
        <time>2026-05-17T13:26:14.000Z</time>
      </trkpt>
      <trkpt lat="44.05646" lon="3.36562">
        <ele>888</ele>
        <time>2026-05-17T13:26:44.000Z</time>
      </trkpt>
      <trkpt lat="44.0567" lon="3.36591">
        <ele>887</ele>
        <time>2026-05-17T13:27:20.000Z</time>
      </trkpt>
      <trkpt lat="44.057" lon="3.36623">
        <ele>886</ele>
        <time>2026-05-17T13:28:03.000Z</time>
      </trkpt>
      <trkpt lat="44.05734" lon="3.36654">
        <ele>882</ele>
        <time>2026-05-17T13:28:50.000Z</time>
      </trkpt>
      <trkpt lat="44.05766" lon="3.36683">
        <ele>881</ele>
        <time>2026-05-17T13:29:34.000Z</time>
      </trkpt>
      <trkpt lat="44.05784" lon="3.36708">
        <ele>880</ele>
        <time>2026-05-17T13:30:03.000Z</time>
      </trkpt>
      <trkpt lat="44.05794" lon="3.36723">
        <ele>881</ele>
        <time>2026-05-17T13:30:30.000Z</time>
      </trkpt>
      <trkpt lat="44.05806" lon="3.36733">
        <ele>881</ele>
        <time>2026-05-17T13:30:46.000Z</time>
      </trkpt>
      <trkpt lat="44.05818" lon="3.3674">
        <ele>881</ele>
        <time>2026-05-17T13:31:01.000Z</time>
      </trkpt>
      <trkpt lat="44.05818" lon="3.36755">
        <ele>882</ele>
        <time>2026-05-17T13:31:24.000Z</time>
      </trkpt>
      <trkpt lat="44.05821" lon="3.36775">
        <ele>881</ele>
        <time>2026-05-17T13:31:41.000Z</time>
      </trkpt>
      <trkpt lat="44.05811" lon="3.36801">
        <ele>879</ele>
        <time>2026-05-17T13:32:05.000Z</time>
      </trkpt>
      <trkpt lat="44.05798" lon="3.36832">
        <ele>876</ele>
        <time>2026-05-17T13:32:35.000Z</time>
      </trkpt>
      <trkpt lat="44.05784" lon="3.36854">
        <ele>871</ele>
        <time>2026-05-17T13:32:59.000Z</time>
      </trkpt>
      <trkpt lat="44.05767" lon="3.36873">
        <ele>867</ele>
        <time>2026-05-17T13:33:24.000Z</time>
      </trkpt>
      <trkpt lat="44.05756" lon="3.36884">
        <ele>865</ele>
        <time>2026-05-17T13:33:40.000Z</time>
      </trkpt>
      <trkpt lat="44.05746" lon="3.3689">
        <ele>864</ele>
        <time>2026-05-17T13:33:52.000Z</time>
      </trkpt>
      <trkpt lat="44.05734" lon="3.36901">
        <ele>862</ele>
        <time>2026-05-17T13:34:08.000Z</time>
      </trkpt>
      <trkpt lat="44.05718" lon="3.36906">
        <ele>860</ele>
        <time>2026-05-17T13:34:27.000Z</time>
      </trkpt>
      <trkpt lat="44.05715" lon="3.36928">
        <ele>857</ele>
        <time>2026-05-17T13:34:45.000Z</time>
      </trkpt>
      <trkpt lat="44.05695" lon="3.36962">
        <ele>854</ele>
        <time>2026-05-17T13:35:21.000Z</time>
      </trkpt>
      <trkpt lat="44.05678" lon="3.36989">
        <ele>852</ele>
        <time>2026-05-17T13:35:51.000Z</time>
      </trkpt>
      <trkpt lat="44.05665" lon="3.37017">
        <ele>852</ele>
        <time>2026-05-17T13:36:18.000Z</time>
      </trkpt>
      <trkpt lat="44.05661" lon="3.37039">
        <ele>851</ele>
        <time>2026-05-17T13:36:37.000Z</time>
      </trkpt>
      <trkpt lat="44.05654" lon="3.37052">
        <ele>851</ele>
        <time>2026-05-17T13:36:50.000Z</time>
      </trkpt>
      <trkpt lat="44.05639" lon="3.3706">
        <ele>848</ele>
        <time>2026-05-17T13:37:08.000Z</time>
      </trkpt>
      <trkpt lat="44.05633" lon="3.37068">
        <ele>847</ele>
        <time>2026-05-17T13:37:18.000Z</time>
      </trkpt>
      <trkpt lat="44.05626" lon="3.37086">
        <ele>845</ele>
        <time>2026-05-17T13:37:35.000Z</time>
      </trkpt>
      <trkpt lat="44.05607" lon="3.37106">
        <ele>845</ele>
        <time>2026-05-17T13:38:02.000Z</time>
      </trkpt>
      <trkpt lat="44.05591" lon="3.37122">
        <ele>845</ele>
        <time>2026-05-17T13:38:25.000Z</time>
      </trkpt>
      <trkpt lat="44.05585" lon="3.37128">
        <ele>845</ele>
        <time>2026-05-17T13:38:33.000Z</time>
      </trkpt>
      <trkpt lat="44.05582" lon="3.37143">
        <ele>844</ele>
        <time>2026-05-17T13:38:46.000Z</time>
      </trkpt>
      <trkpt lat="44.05584" lon="3.37155">
        <ele>845</ele>
        <time>2026-05-17T13:39:06.000Z</time>
      </trkpt>
      <trkpt lat="44.05588" lon="3.3717">
        <ele>843</ele>
        <time>2026-05-17T13:39:19.000Z</time>
      </trkpt>
      <trkpt lat="44.05587" lon="3.37184">
        <ele>843</ele>
        <time>2026-05-17T13:39:31.000Z</time>
      </trkpt>
      <trkpt lat="44.05584" lon="3.37196">
        <ele>843</ele>
        <time>2026-05-17T13:39:41.000Z</time>
      </trkpt>
      <trkpt lat="44.05575" lon="3.37204">
        <ele>842</ele>
        <time>2026-05-17T13:39:53.000Z</time>
      </trkpt>
      <trkpt lat="44.05567" lon="3.3721">
        <ele>842</ele>
        <time>2026-05-17T13:40:03.000Z</time>
      </trkpt>
      <trkpt lat="44.05556" lon="3.37212">
        <ele>843</ele>
        <time>2026-05-17T13:40:26.000Z</time>
      </trkpt>
      <trkpt lat="44.05538" lon="3.3721">
        <ele>843</ele>
        <time>2026-05-17T13:40:47.000Z</time>
      </trkpt>
      <trkpt lat="44.05517" lon="3.37212">
        <ele>844</ele>
        <time>2026-05-17T13:41:21.000Z</time>
      </trkpt>
      <trkpt lat="44.05486" lon="3.37218">
        <ele>845</ele>
        <time>2026-05-17T13:42:07.000Z</time>
      </trkpt>
      <trkpt lat="44.05454" lon="3.37224">
        <ele>846</ele>
        <time>2026-05-17T13:42:54.000Z</time>
      </trkpt>
      <trkpt lat="44.05434" lon="3.37226">
        <ele>847</ele>
        <time>2026-05-17T13:43:27.000Z</time>
      </trkpt>
      <trkpt lat="44.05412" lon="3.37231">
        <ele>847</ele>
        <time>2026-05-17T13:43:53.000Z</time>
      </trkpt>
      <trkpt lat="44.05386" lon="3.37237">
        <ele>849</ele>
        <time>2026-05-17T13:44:44.000Z</time>
      </trkpt>
      <trkpt lat="44.05376" lon="3.37239">
        <ele>849</ele>
        <time>2026-05-17T13:44:56.000Z</time>
      </trkpt>
      <trkpt lat="44.05352" lon="3.37247">
        <ele>850</ele>
        <time>2026-05-17T13:45:35.000Z</time>
      </trkpt>
      <trkpt lat="44.05327" lon="3.37258">
        <ele>849</ele>
        <time>2026-05-17T13:46:05.000Z</time>
      </trkpt>
      <trkpt lat="44.05307" lon="3.37266">
        <ele>851</ele>
        <time>2026-05-17T13:46:49.000Z</time>
      </trkpt>
      <trkpt lat="44.0529" lon="3.37267">
        <ele>851</ele>
        <time>2026-05-17T13:47:08.000Z</time>
      </trkpt>
      <trkpt lat="44.0527" lon="3.37263">
        <ele>852</ele>
        <time>2026-05-17T13:47:41.000Z</time>
      </trkpt>
      <trkpt lat="44.05241" lon="3.37253">
        <ele>854</ele>
        <time>2026-05-17T13:48:36.000Z</time>
      </trkpt>
      <trkpt lat="44.05232" lon="3.37245">
        <ele>856</ele>
        <time>2026-05-17T13:49:09.000Z</time>
      </trkpt>
      <trkpt lat="44.0522" lon="3.37225">
        <ele>857</ele>
        <time>2026-05-17T13:49:41.000Z</time>
      </trkpt>
      <trkpt lat="44.05208" lon="3.37211">
        <ele>858</ele>
        <time>2026-05-17T13:50:09.000Z</time>
      </trkpt>
      <trkpt lat="44.05199" lon="3.37207">
        <ele>859</ele>
        <time>2026-05-17T13:50:30.000Z</time>
      </trkpt>
      <trkpt lat="44.05185" lon="3.37202">
        <ele>860</ele>
        <time>2026-05-17T13:50:57.000Z</time>
      </trkpt>
      <trkpt lat="44.05161" lon="3.37198">
        <ele>861</ele>
        <time>2026-05-17T13:51:35.000Z</time>
      </trkpt>
      <trkpt lat="44.05133" lon="3.37192">
        <ele>862</ele>
        <time>2026-05-17T13:52:18.000Z</time>
      </trkpt>
      <trkpt lat="44.05119" lon="3.37188">
        <ele>862</ele>
        <time>2026-05-17T13:52:34.000Z</time>
      </trkpt>
      <trkpt lat="44.0511" lon="3.37178">
        <ele>862</ele>
        <time>2026-05-17T13:52:47.000Z</time>
      </trkpt>
      <trkpt lat="44.05097" lon="3.37168">
        <ele>862</ele>
        <time>2026-05-17T13:53:04.000Z</time>
      </trkpt>
      <trkpt lat="44.05082" lon="3.37149">
        <ele>864</ele>
        <time>2026-05-17T13:53:48.000Z</time>
      </trkpt>
      <trkpt lat="44.05065" lon="3.37125">
        <ele>864</ele>
        <time>2026-05-17T13:54:16.000Z</time>
      </trkpt>
      <trkpt lat="44.05054" lon="3.37105">
        <ele>865</ele>
        <time>2026-05-17T13:54:47.000Z</time>
      </trkpt>
      <trkpt lat="44.05045" lon="3.37093">
        <ele>865</ele>
        <time>2026-05-17T13:55:01.000Z</time>
      </trkpt>
      <trkpt lat="44.05031" lon="3.37081">
        <ele>866</ele>
        <time>2026-05-17T13:55:30.000Z</time>
      </trkpt>
      <trkpt lat="44.05005" lon="3.37061">
        <ele>868</ele>
        <time>2026-05-17T13:56:25.000Z</time>
      </trkpt>
      <trkpt lat="44.04981" lon="3.37039">
        <ele>870</ele>
        <time>2026-05-17T13:57:18.000Z</time>
      </trkpt>
      <trkpt lat="44.04971" lon="3.37027">
        <ele>871</ele>
        <time>2026-05-17T13:57:43.000Z</time>
      </trkpt>
      <trkpt lat="44.04951" lon="3.37002">
        <ele>872</ele>
        <time>2026-05-17T13:58:24.000Z</time>
      </trkpt>
      <trkpt lat="44.04941" lon="3.36994">
        <ele>873</ele>
        <time>2026-05-17T13:58:47.000Z</time>
      </trkpt>
      <trkpt lat="44.04931" lon="3.36986">
        <ele>874</ele>
        <time>2026-05-17T13:59:10.000Z</time>
      </trkpt>
      <trkpt lat="44.04918" lon="3.3698">
        <ele>876</ele>
        <time>2026-05-17T13:59:46.000Z</time>
      </trkpt>
      <trkpt lat="44.04901" lon="3.36979">
        <ele>878</ele>
        <time>2026-05-17T14:00:26.000Z</time>
      </trkpt>
      <trkpt lat="44.04878" lon="3.36973">
        <ele>875</ele>
        <time>2026-05-17T14:00:53.000Z</time>
      </trkpt>
      <trkpt lat="44.0487" lon="3.36969">
        <ele>873</ele>
        <time>2026-05-17T14:01:03.000Z</time>
      </trkpt>
      <trkpt lat="44.04855" lon="3.36954">
        <ele>871</ele>
        <time>2026-05-17T14:01:24.000Z</time>
      </trkpt>
      <trkpt lat="44.04818" lon="3.36922">
        <ele>863</ele>
        <time>2026-05-17T14:02:14.000Z</time>
      </trkpt>
      <trkpt lat="44.04794" lon="3.36901">
        <ele>860</ele>
        <time>2026-05-17T14:02:46.000Z</time>
      </trkpt>
      <trkpt lat="44.04764" lon="3.36874">
        <ele>858</ele>
        <time>2026-05-17T14:03:27.000Z</time>
      </trkpt>
      <trkpt lat="44.0473" lon="3.36857">
        <ele>855</ele>
        <time>2026-05-17T14:04:08.000Z</time>
      </trkpt>
      <trkpt lat="44.0471" lon="3.3685">
        <ele>854</ele>
        <time>2026-05-17T14:04:32.000Z</time>
      </trkpt>
      <trkpt lat="44.04692" lon="3.3685">
        <ele>849</ele>
        <time>2026-05-17T14:04:53.000Z</time>
      </trkpt>
      <trkpt lat="44.04648" lon="3.36845">
        <ele>845</ele>
        <time>2026-05-17T14:05:44.000Z</time>
      </trkpt>
      <trkpt lat="44.04637" lon="3.36845">
        <ele>843</ele>
        <time>2026-05-17T14:05:57.000Z</time>
      </trkpt>
      <trkpt lat="44.04586" lon="3.36831">
        <ele>842</ele>
        <time>2026-05-17T14:06:57.000Z</time>
      </trkpt>
      <trkpt lat="44.04559" lon="3.36826">
        <ele>840</ele>
        <time>2026-05-17T14:07:28.000Z</time>
      </trkpt>
      <trkpt lat="44.04524" lon="3.3681">
        <ele>834</ele>
        <time>2026-05-17T14:08:10.000Z</time>
      </trkpt>
      <trkpt lat="44.04499" lon="3.36797">
        <ele>835</ele>
        <time>2026-05-17T14:08:51.000Z</time>
      </trkpt>
      <trkpt lat="44.0449" lon="3.36793">
        <ele>835</ele>
        <time>2026-05-17T14:09:02.000Z</time>
      </trkpt>
      <trkpt lat="44.04481" lon="3.36794">
        <ele>833</ele>
        <time>2026-05-17T14:09:12.000Z</time>
      </trkpt>
      <trkpt lat="44.04472" lon="3.36797">
        <ele>832</ele>
        <time>2026-05-17T14:09:23.000Z</time>
      </trkpt>
      <trkpt lat="44.04451" lon="3.36803">
        <ele>829</ele>
        <time>2026-05-17T14:09:48.000Z</time>
      </trkpt>
      <trkpt lat="44.04426" lon="3.36797">
        <ele>830</ele>
        <time>2026-05-17T14:10:27.000Z</time>
      </trkpt>
      <trkpt lat="44.04414" lon="3.36798">
        <ele>828</ele>
        <time>2026-05-17T14:10:41.000Z</time>
      </trkpt>
      <trkpt lat="44.04355" lon="3.36799">
        <ele>823</ele>
        <time>2026-05-17T14:11:49.000Z</time>
      </trkpt>
      <trkpt lat="44.04308" lon="3.36803">
        <ele>820</ele>
        <time>2026-05-17T14:12:43.000Z</time>
      </trkpt>
      <trkpt lat="44.04287" lon="3.36809">
        <ele>819</ele>
        <time>2026-05-17T14:13:08.000Z</time>
      </trkpt>
      <trkpt lat="44.04262" lon="3.36828">
        <ele>815</ele>
        <time>2026-05-17T14:13:41.000Z</time>
      </trkpt>
      <trkpt lat="44.04251" lon="3.36842">
        <ele>813</ele>
        <time>2026-05-17T14:13:58.000Z</time>
      </trkpt>
      <trkpt lat="44.04242" lon="3.36848">
        <ele>812</ele>
        <time>2026-05-17T14:14:09.000Z</time>
      </trkpt>
      <trkpt lat="44.04215" lon="3.36851">
        <ele>810</ele>
        <time>2026-05-17T14:14:40.000Z</time>
      </trkpt>
      <trkpt lat="44.04203" lon="3.36851">
        <ele>810</ele>
        <time>2026-05-17T14:14:54.000Z</time>
      </trkpt>
      <trkpt lat="44.04189" lon="3.36854">
        <ele>806</ele>
        <time>2026-05-17T14:15:10.000Z</time>
      </trkpt>
      <trkpt lat="44.04162" lon="3.36854">
        <ele>807</ele>
        <time>2026-05-17T14:15:51.000Z</time>
      </trkpt>
      <trkpt lat="44.04141" lon="3.36864">
        <ele>806</ele>
        <time>2026-05-17T14:16:16.000Z</time>
      </trkpt>
      <trkpt lat="44.04124" lon="3.36884">
        <ele>803</ele>
        <time>2026-05-17T14:16:41.000Z</time>
      </trkpt>
      <trkpt lat="44.04112" lon="3.36887">
        <ele>802</ele>
        <time>2026-05-17T14:16:55.000Z</time>
      </trkpt>
      <trkpt lat="44.04095" lon="3.36891">
        <ele>801</ele>
        <time>2026-05-17T14:17:15.000Z</time>
      </trkpt>
      <trkpt lat="44.04083" lon="3.36898">
        <ele>799</ele>
        <time>2026-05-17T14:17:30.000Z</time>
      </trkpt>
      <trkpt lat="44.04074" lon="3.36907">
        <ele>797</ele>
        <time>2026-05-17T14:17:43.000Z</time>
      </trkpt>
      <trkpt lat="44.04071" lon="3.36916">
        <ele>795</ele>
        <time>2026-05-17T14:17:51.000Z</time>
      </trkpt>
      <trkpt lat="44.04085" lon="3.36924">
        <ele>793</ele>
        <time>2026-05-17T14:18:08.000Z</time>
      </trkpt>
      <trkpt lat="44.041" lon="3.36937">
        <ele>792</ele>
        <time>2026-05-17T14:18:28.000Z</time>
      </trkpt>
      <trkpt lat="44.04115" lon="3.3694">
        <ele>789</ele>
        <time>2026-05-17T14:18:45.000Z</time>
      </trkpt>
      <trkpt lat="44.04123" lon="3.36937">
        <ele>791</ele>
        <time>2026-05-17T14:19:15.000Z</time>
      </trkpt>
      <trkpt lat="44.04131" lon="3.36936">
        <ele>791</ele>
        <time>2026-05-17T14:19:24.000Z</time>
      </trkpt>
      <trkpt lat="44.04139" lon="3.36931">
        <ele>791</ele>
        <time>2026-05-17T14:19:33.000Z</time>
      </trkpt>
      <trkpt lat="44.04157" lon="3.3692">
        <ele>789</ele>
        <time>2026-05-17T14:19:55.000Z</time>
      </trkpt>
      <trkpt lat="44.04135" lon="3.36936">
        <ele>790</ele>
        <time>2026-05-17T14:20:33.000Z</time>
      </trkpt>
      <trkpt lat="44.04121" lon="3.36942">
        <ele>788</ele>
        <time>2026-05-17T14:20:51.000Z</time>
      </trkpt>
      <trkpt lat="44.04106" lon="3.36942">
        <ele>787</ele>
        <time>2026-05-17T14:21:07.000Z</time>
      </trkpt>
      <trkpt lat="44.04089" lon="3.36931">
        <ele>791</ele>
        <time>2026-05-17T14:22:10.000Z</time>
      </trkpt>
      <trkpt lat="44.04077" lon="3.36923">
        <ele>793</ele>
        <time>2026-05-17T14:22:47.000Z</time>
      </trkpt>
      <trkpt lat="44.04061" lon="3.36917">
        <ele>794</ele>
        <time>2026-05-17T14:23:16.000Z</time>
      </trkpt>
      <trkpt lat="44.04023" lon="3.36908">
        <ele>795</ele>
        <time>2026-05-17T14:24:10.000Z</time>
      </trkpt>
      <trkpt lat="44.03977" lon="3.36904">
        <ele>796</ele>
        <time>2026-05-17T14:25:13.000Z</time>
      </trkpt>
      <trkpt lat="44.03923" lon="3.36888">
        <ele>792</ele>
        <time>2026-05-17T14:26:16.000Z</time>
      </trkpt>
      <trkpt lat="44.03846" lon="3.36861">
        <ele>789</ele>
        <time>2026-05-17T14:27:47.000Z</time>
      </trkpt>
      <trkpt lat="44.03793" lon="3.3683">
        <ele>781</ele>
        <time>2026-05-17T14:28:53.000Z</time>
      </trkpt>
      <trkpt lat="44.0375" lon="3.36767">
        <ele>767</ele>
        <time>2026-05-17T14:30:05.000Z</time>
      </trkpt>
      <trkpt lat="44.03705" lon="3.36695">
        <ele>752</ele>
        <time>2026-05-17T14:31:24.000Z</time>
      </trkpt>
      <trkpt lat="44.03688" lon="3.36624">
        <ele>734</ele>
        <time>2026-05-17T14:32:26.000Z</time>
      </trkpt>
      <trkpt lat="44.0369" lon="3.36614">
        <ele>734</ele>
        <time>2026-05-17T14:32:35.000Z</time>
      </trkpt>
      <trkpt lat="44.03676" lon="3.36608">
        <ele>732</ele>
        <time>2026-05-17T14:32:51.000Z</time>
      </trkpt>
      <trkpt lat="44.03655" lon="3.36604">
        <ele>730</ele>
        <time>2026-05-17T14:33:16.000Z</time>
      </trkpt>
      <trkpt lat="44.03622" lon="3.36589">
        <ele>727</ele>
        <time>2026-05-17T14:33:56.000Z</time>
      </trkpt>
      <trkpt lat="44.0359" lon="3.36571">
        <ele>724</ele>
        <time>2026-05-17T14:34:35.000Z</time>
      </trkpt>
      <trkpt lat="44.03549" lon="3.36568">
        <ele>720</ele>
        <time>2026-05-17T14:35:22.000Z</time>
      </trkpt>
      <trkpt lat="44.03542" lon="3.36561">
        <ele>719</ele>
        <time>2026-05-17T14:35:32.000Z</time>
      </trkpt>
      <trkpt lat="44.03536" lon="3.36553">
        <ele>718</ele>
        <time>2026-05-17T14:35:42.000Z</time>
      </trkpt>
      <trkpt lat="44.03527" lon="3.36531">
        <ele>716</ele>
        <time>2026-05-17T14:36:03.000Z</time>
      </trkpt>
      <trkpt lat="44.03525" lon="3.3651">
        <ele>715</ele>
        <time>2026-05-17T14:36:20.000Z</time>
      </trkpt>
      <trkpt lat="44.03527" lon="3.3649">
        <ele>714</ele>
        <time>2026-05-17T14:36:36.000Z</time>
      </trkpt>
      <trkpt lat="44.03519" lon="3.36494">
        <ele>714</ele>
        <time>2026-05-17T14:36:46.000Z</time>
      </trkpt>
      <trkpt lat="44.03509" lon="3.365">
        <ele>712</ele>
        <time>2026-05-17T14:36:58.000Z</time>
      </trkpt>
      <trkpt lat="44.03504" lon="3.36517">
        <ele>710</ele>
        <time>2026-05-17T14:37:14.000Z</time>
      </trkpt>
      <trkpt lat="44.03494" lon="3.36535">
        <ele>708</ele>
        <time>2026-05-17T14:37:33.000Z</time>
      </trkpt>
      <trkpt lat="44.03481" lon="3.36546">
        <ele>706</ele>
        <time>2026-05-17T14:37:50.000Z</time>
      </trkpt>
      <trkpt lat="44.03477" lon="3.36548">
        <ele>706</ele>
        <time>2026-05-17T14:37:55.000Z</time>
      </trkpt>
      <trkpt lat="44.03471" lon="3.36547">
        <ele>705</ele>
        <time>2026-05-17T14:38:02.000Z</time>
      </trkpt>
      <trkpt lat="44.03439" lon="3.36522">
        <ele>702</ele>
        <time>2026-05-17T14:38:44.000Z</time>
      </trkpt>
      <trkpt lat="44.03384" lon="3.36507">
        <ele>700</ele>
        <time>2026-05-17T14:39:48.000Z</time>
      </trkpt>
      <trkpt lat="44.03378" lon="3.36521">
        <ele>699</ele>
        <time>2026-05-17T14:40:02.000Z</time>
      </trkpt>
      <trkpt lat="44.03376" lon="3.36534">
        <ele>697</ele>
        <time>2026-05-17T14:40:13.000Z</time>
      </trkpt>
      <trkpt lat="44.03339" lon="3.36531">
        <ele>692</ele>
        <time>2026-05-17T14:40:56.000Z</time>
      </trkpt>
      <trkpt lat="44.03309" lon="3.3654">
        <ele>687</ele>
        <time>2026-05-17T14:41:31.000Z</time>
      </trkpt>
      <trkpt lat="44.03268" lon="3.36544">
        <ele>682</ele>
        <time>2026-05-17T14:42:18.000Z</time>
      </trkpt>
      <trkpt lat="44.03224" lon="3.3654">
        <ele>672</ele>
        <time>2026-05-17T14:43:08.000Z</time>
      </trkpt>
      <trkpt lat="44.03165" lon="3.36517">
        <ele>661</ele>
        <time>2026-05-17T14:44:18.000Z</time>
      </trkpt>
      <trkpt lat="44.03141" lon="3.36512">
        <ele>655</ele>
        <time>2026-05-17T14:44:46.000Z</time>
      </trkpt>
      <trkpt lat="44.031" lon="3.36516">
        <ele>643</ele>
        <time>2026-05-17T14:45:33.000Z</time>
      </trkpt>
      <trkpt lat="44.03075" lon="3.36536">
        <ele>631</ele>
        <time>2026-05-17T14:46:06.000Z</time>
      </trkpt>
      <trkpt lat="44.03048" lon="3.36549">
        <ele>626</ele>
        <time>2026-05-17T14:46:39.000Z</time>
      </trkpt>
      <trkpt lat="44.03025" lon="3.36556">
        <ele>626</ele>
        <time>2026-05-17T14:47:06.000Z</time>
      </trkpt>
      <trkpt lat="44.02999" lon="3.36569">
        <ele>623</ele>
        <time>2026-05-17T14:47:38.000Z</time>
      </trkpt>
      <trkpt lat="44.02982" lon="3.36572">
        <ele>621</ele>
        <time>2026-05-17T14:47:58.000Z</time>
      </trkpt>
      <trkpt lat="44.0297" lon="3.36572">
        <ele>622</ele>
        <time>2026-05-17T14:48:22.000Z</time>
      </trkpt>
      <trkpt lat="44.02954" lon="3.36572">
        <ele>620</ele>
        <time>2026-05-17T14:48:41.000Z</time>
      </trkpt>
      <trkpt lat="44.02934" lon="3.36581">
        <ele>617</ele>
        <time>2026-05-17T14:49:05.000Z</time>
      </trkpt>
      <trkpt lat="44.02887" lon="3.36585">
        <ele>615</ele>
        <time>2026-05-17T14:49:59.000Z</time>
      </trkpt>
      <trkpt lat="44.0281" lon="3.36606">
        <ele>609</ele>
        <time>2026-05-17T14:51:29.000Z</time>
      </trkpt>
      <trkpt lat="44.02743" lon="3.36649">
        <ele>598</ele>
        <time>2026-05-17T14:52:53.000Z</time>
      </trkpt>
      <trkpt lat="44.02723" lon="3.36667">
        <ele>597</ele>
        <time>2026-05-17T14:53:20.000Z</time>
      </trkpt>
      <trkpt lat="44.02692" lon="3.36683">
        <ele>595</ele>
        <time>2026-05-17T14:53:58.000Z</time>
      </trkpt>
      <trkpt lat="44.0268" lon="3.36677">
        <ele>598</ele>
        <time>2026-05-17T14:54:43.000Z</time>
      </trkpt>
      <trkpt lat="44.02674" lon="3.36694">
        <ele>594</ele>
        <time>2026-05-17T14:54:59.000Z</time>
      </trkpt>
      <trkpt lat="44.0265" lon="3.36713">
        <ele>592</ele>
        <time>2026-05-17T14:55:31.000Z</time>
      </trkpt>
      <trkpt lat="44.02623" lon="3.36746">
        <ele>588</ele>
        <time>2026-05-17T14:56:12.000Z</time>
      </trkpt>
      <trkpt lat="44.02608" lon="3.36773">
        <ele>584</ele>
        <time>2026-05-17T14:56:40.000Z</time>
      </trkpt>
      <trkpt lat="44.02605" lon="3.36807">
        <ele>579</ele>
        <time>2026-05-17T14:57:08.000Z</time>
      </trkpt>
      <trkpt lat="44.02597" lon="3.36818">
        <ele>578</ele>
        <time>2026-05-17T14:57:20.000Z</time>
      </trkpt>
      <trkpt lat="44.02592" lon="3.36817">
        <ele>577</ele>
        <time>2026-05-17T14:57:26.000Z</time>
      </trkpt>
      <trkpt lat="44.02585" lon="3.36814">
        <ele>577</ele>
        <time>2026-05-17T14:57:34.000Z</time>
      </trkpt>
      <trkpt lat="44.02584" lon="3.36784">
        <ele>575</ele>
        <time>2026-05-17T14:57:59.000Z</time>
      </trkpt>
      <trkpt lat="44.02584" lon="3.36738">
        <ele>574</ele>
        <time>2026-05-17T14:58:37.000Z</time>
      </trkpt>
      <trkpt lat="44.02576" lon="3.36717">
        <ele>572</ele>
        <time>2026-05-17T14:58:57.000Z</time>
      </trkpt>
      <trkpt lat="44.02569" lon="3.36669">
        <ele>570</ele>
        <time>2026-05-17T14:59:37.000Z</time>
      </trkpt>
      <trkpt lat="44.02561" lon="3.36653">
        <ele>569</ele>
        <time>2026-05-17T14:59:53.000Z</time>
      </trkpt>
      <trkpt lat="44.02549" lon="3.3664">
        <ele>567</ele>
        <time>2026-05-17T15:00:10.000Z</time>
      </trkpt>
      <trkpt lat="44.02544" lon="3.36609">
        <ele>565</ele>
        <time>2026-05-17T15:00:36.000Z</time>
      </trkpt>
      <trkpt lat="44.02533" lon="3.36574">
        <ele>562</ele>
        <time>2026-05-17T15:01:07.000Z</time>
      </trkpt>
      <trkpt lat="44.02524" lon="3.36542">
        <ele>561</ele>
        <time>2026-05-17T15:01:35.000Z</time>
      </trkpt>
      <trkpt lat="44.02519" lon="3.36512">
        <ele>559</ele>
        <time>2026-05-17T15:02:01.000Z</time>
      </trkpt>
      <trkpt lat="44.0251" lon="3.36437">
        <ele>553</ele>
        <time>2026-05-17T15:03:04.000Z</time>
      </trkpt>
      <trkpt lat="44.02497" lon="3.36385">
        <ele>551</ele>
        <time>2026-05-17T15:03:49.000Z</time>
      </trkpt>
      <trkpt lat="44.02496" lon="3.36329">
        <ele>545</ele>
        <time>2026-05-17T15:04:35.000Z</time>
      </trkpt>
      <trkpt lat="44.02494" lon="3.36298">
        <ele>542</ele>
        <time>2026-05-17T15:05:00.000Z</time>
      </trkpt>
      <trkpt lat="44.02497" lon="3.3627">
        <ele>542</ele>
        <time>2026-05-17T15:05:24.000Z</time>
      </trkpt>
      <trkpt lat="44.02508" lon="3.362">
        <ele>535</ele>
        <time>2026-05-17T15:06:23.000Z</time>
      </trkpt>
      <trkpt lat="44.02522" lon="3.36141">
        <ele>532</ele>
        <time>2026-05-17T15:07:14.000Z</time>
      </trkpt>
      <trkpt lat="44.02527" lon="3.36115">
        <ele>530</ele>
        <time>2026-05-17T15:07:36.000Z</time>
      </trkpt>
      <trkpt lat="44.02532" lon="3.36046">
        <ele>526</ele>
        <time>2026-05-17T15:08:33.000Z</time>
      </trkpt>
      <trkpt lat="44.02534" lon="3.36015">
        <ele>524</ele>
        <time>2026-05-17T15:08:59.000Z</time>
      </trkpt>
      <trkpt lat="44.02532" lon="3.3599">
        <ele>523</ele>
        <time>2026-05-17T15:09:20.000Z</time>
      </trkpt>
      <trkpt lat="44.02522" lon="3.35975">
        <ele>522</ele>
        <time>2026-05-17T15:09:37.000Z</time>
      </trkpt>
      <trkpt lat="44.02514" lon="3.35975">
        <ele>521</ele>
        <time>2026-05-17T15:09:47.000Z</time>
      </trkpt>
      <trkpt lat="44.02504" lon="3.35981">
        <ele>521</ele>
        <time>2026-05-17T15:09:59.000Z</time>
      </trkpt>
      <trkpt lat="44.02486" lon="3.35984">
        <ele>520</ele>
        <time>2026-05-17T15:10:20.000Z</time>
      </trkpt>
      <trkpt lat="44.02348" lon="3.35968">
        <ele>518</ele>
        <time>2026-05-17T15:12:59.000Z</time>
      </trkpt>
    </trkseg>
  </trk>
</gpx>